Time;durP1;ratioP1;P1;durP2;ratioP2;P2;SDS_P1;SDS_P2;PMS_P1;PMS_P2;Temp;Humidity;BMP_temperature;BMP_pressure;BME280_temperature;BME280_humidity;BME280_pressure;Samples;Min_cycle;Max_cycle;Signal;HPM_P1;HPM_P2
2022/06/28 00:01:27;;;;;;;;;0.00;0.00;;;;;;;;5095346;27;46644;-70
2022/06/28 00:03:52;;;;;;;;;0.00;0.00;;;;;;;;5095919;27;45434;-70
2022/06/28 00:06:17;;;;;;;;;0.33;0.00;;;;;;;;5094639;27;45395;-70
2022/06/28 00:08:43;;;;;;;;;0.00;0.00;;;;;;;;5093501;27;47149;-70
2022/06/28 00:11:08;;;;;;;;;0.00;0.00;;;;;;;;5090727;27;45400;-70
2022/06/28 00:13:33;;;;;;;;;0.00;0.00;;;;;;;;5094007;27;45363;-71
2022/06/28 00:16:08;;;;;;;;;1.00;0.00;;;;;;;;5096620;27;45455;-70
2022/06/28 00:18:35;;;;;;;;;1.00;0.00;;;;;;;;5094992;27;46161;-70
2022/06/28 00:21:01;;;;;;;;;1.00;0.00;;;;;;;;5092020;27;45304;-70
2022/06/28 00:23:27;;;;;;;;;0.00;0.00;;;;;;;;5093516;27;45535;-70
2022/06/28 00:25:52;;;;;;;;;0.00;0.00;;;;;;;;5093267;27;45436;-70
2022/06/28 00:28:17;;;;;;;;;0.00;0.00;;;;;;;;5095579;27;45540;-70
2022/06/28 00:30:42;;;;;;;;;0.00;0.00;;;;;;;;5094409;27;45627;-70
2022/06/28 00:33:07;;;;;;;;;1.00;0.00;;;;;;;;5093354;27;45419;-70
2022/06/28 00:35:33;;;;;;;;;0.00;0.00;;;;;;;;5094011;27;45514;-70
2022/06/28 00:37:58;;;;;;;;;0.00;0.00;;;;;;;;5093029;27;45464;-70
2022/06/28 00:40:24;;;;;;;;;0.00;0.00;;;;;;;;5095009;27;45457;-70
2022/06/28 00:42:49;;;;;;;;;0.00;0.00;;;;;;;;5094837;27;45274;-70
2022/06/28 00:45:14;;;;;;;;;0.00;0.00;;;;;;;;5094160;27;45398;-70
2022/06/28 00:47:40;;;;;;;;;0.00;0.00;;;;;;;;5092688;27;47219;-70
2022/06/28 00:50:05;;;;;;;;;0.00;0.00;;;;;;;;5092574;27;45405;-70
2022/06/28 00:52:31;;;;;;;;;0.00;0.00;;;;;;;;5093084;27;45421;-70
2022/06/28 00:54:56;;;;;;;;;0.00;0.00;;;;;;;;5095639;27;45408;-70
2022/06/28 00:57:21;;;;;;;;;1.00;0.00;;;;;;;;5092387;27;46263;-70
2022/06/28 00:59:47;;;;;;;;;0.00;0.00;;;;;;;;5092297;27;45414;-70
2022/06/28 01:02:12;;;;;;;;;0.00;0.00;;;;;;;;5093415;27;45346;-70
2022/06/28 01:04:38;;;;;;;;;0.00;0.00;;;;;;;;5092596;27;45494;-70
2022/06/28 01:07:03;;;;;;;;;0.00;0.00;;;;;;;;5096108;27;45454;-70
2022/06/28 01:09:28;;;;;;;;;2.00;0.33;;;;;;;;5092442;27;45357;-70
2022/06/28 01:11:54;;;;;;;;;0.00;0.00;;;;;;;;5094072;27;45413;-69
2022/06/28 01:14:19;;;;;;;;;0.00;0.00;;;;;;;;5092340;27;45459;-70
2022/06/28 01:16:45;;;;;;;;;0.00;0.00;;;;;;;;5092226;27;46276;-70
2022/06/28 01:19:10;;;;;;;;;0.00;0.00;;;;;;;;5095019;27;45394;-70
2022/06/28 01:21:37;;;;;;;;;0.00;0.00;;;;;;;;5094348;27;45349;-70
2022/06/28 01:24:02;;;;;;;;;0.33;0.00;;;;;;;;5093907;27;45320;-70
2022/06/28 01:26:30;;;;;;;;;0.00;0.00;;;;;;;;5093726;27;46009;-70
2022/06/28 01:28:55;;;;;;;;;0.00;0.00;;;;;;;;5092414;27;45337;-70
2022/06/28 01:31:21;;;;;;;;;0.00;0.00;;;;;;;;5094287;27;45230;-70
2022/06/28 01:33:47;;;;;;;;;1.00;0.00;;;;;;;;5093474;27;45568;-70
2022/06/28 01:36:12;;;;;;;;;0.00;0.00;;;;;;;;5092009;27;46243;-70
2022/06/28 01:38:39;;;;;;;;;0.00;0.00;;;;;;;;5091625;27;45606;-70
2022/06/28 01:41:05;;;;;;;;;0.00;0.00;;;;;;;;5092517;27;45337;-70
2022/06/28 01:43:32;;;;;;;;;0.00;0.00;;;;;;;;5093286;27;45355;-71
2022/06/28 01:45:57;;;;;;;;;0.00;0.00;;;;;;;;5094536;27;46385;-70
2022/06/28 01:48:22;;;;;;;;;0.00;0.00;;;;;;;;5091592;27;45413;-70
2022/06/28 01:50:49;;;;;;;;;0.00;0.00;;;;;;;;5092271;27;45468;-70
2022/06/28 01:53:14;;;;;;;;;0.00;0.00;;;;;;;;5091705;27;45502;-70
2022/06/28 01:55:40;;;;;;;;;0.00;0.00;;;;;;;;5095477;27;45334;-70
2022/06/28 01:58:05;;;;;;;;;1.00;0.00;;;;;;;;5095901;27;45484;-70
2022/06/28 02:00:31;;;;;;;;;0.00;0.00;;;;;;;;5091187;27;46245;-71
2022/06/28 02:02:56;;;;;;;;;0.00;0.00;;;;;;;;5093312;27;45434;-70
2022/06/28 02:05:22;;;;;;;;;0.00;0.00;;;;;;;;5097648;27;45550;-70
2022/06/28 02:07:48;;;;;;;;;0.00;0.00;;;;;;;;5097083;27;45467;-70
2022/06/28 02:10:13;;;;;;;;;3.00;0.00;;;;;;;;5098388;27;45259;-70
2022/06/28 02:12:38;;;;;;;;;0.00;0.00;;;;;;;;5096056;27;45414;-70
2022/06/28 02:15:04;;;;;;;;;2.00;1.00;;;;;;;;5094747;27;45481;-70
2022/06/28 02:17:29;;;;;;;;;0.00;0.00;;;;;;;;5095103;27;45484;-70
2022/06/28 02:19:54;;;;;;;;;0.00;0.00;;;;;;;;5095407;27;45533;-70
2022/06/28 02:22:20;;;;;;;;;1.00;1.00;;;;;;;;5095789;27;45402;-70
2022/06/28 02:24:45;;;;;;;;;0.00;0.00;;;;;;;;5098250;27;45900;-70
2022/06/28 02:27:10;;;;;;;;;0.00;0.00;;;;;;;;5097311;27;45474;-70
2022/06/28 02:29:35;;;;;;;;;0.00;0.00;;;;;;;;5094941;27;45424;-70
2022/06/28 02:32:00;;;;;;;;;0.00;0.00;;;;;;;;5094571;27;45516;-70
2022/06/28 02:42:38;;;;;;;;;0.00;0.00;;;;;;;;5095686;27;45406;-70
2022/06/28 02:45:03;;;;;;;;;0.00;0.00;;;;;;;;5098057;27;45505;-71
2022/06/28 02:47:28;;;;;;;;;0.00;0.00;;;;;;;;5094851;27;45502;-70
2022/06/28 02:49:53;;;;;;;;;0.00;0.00;;;;;;;;5095014;27;45846;-70
2022/06/28 02:52:19;;;;;;;;;0.00;0.00;;;;;;;;5097012;27;45369;-70
2022/06/28 02:54:44;;;;;;;;;0.00;0.00;;;;;;;;5095967;27;45447;-70
2022/06/28 02:57:09;;;;;;;;;0.00;0.00;;;;;;;;5093525;27;45587;-71
2022/06/28 02:59:34;;;;;;;;;0.00;0.00;;;;;;;;5093488;27;45464;-70
2022/06/28 03:01:59;;;;;;;;;0.00;0.00;;;;;;;;5097449;27;45377;-70
2022/06/28 03:04:24;;;;;;;;;0.00;0.00;;;;;;;;5094055;27;46497;-70
2022/06/28 03:06:50;;;;;;;;;0.00;0.00;;;;;;;;5095172;27;45456;-71
2022/06/28 03:09:15;;;;;;;;;0.00;0.00;;;;;;;;5093279;27;45430;-71
2022/06/28 03:11:40;;;;;;;;;0.00;0.00;;;;;;;;5093130;27;45601;-70
2022/06/28 03:14:06;;;;;;;;;0.00;0.00;;;;;;;;5093050;27;45729;-70
2022/06/28 03:16:31;;;;;;;;;0.00;0.00;;;;;;;;5094136;27;45565;-71
2022/06/28 03:18:56;;;;;;;;;0.00;0.00;;;;;;;;5095984;27;45411;-70
2022/06/28 03:21:21;;;;;;;;;0.00;0.00;;;;;;;;5094692;27;45290;-70
2022/06/28 03:23:46;;;;;;;;;0.00;0.00;;;;;;;;5093038;27;46896;-70
2022/06/28 03:26:12;;;;;;;;;0.00;0.00;;;;;;;;5093231;27;45346;-70
2022/06/28 03:28:37;;;;;;;;;0.00;0.00;;;;;;;;5092955;27;45496;-70
2022/06/28 03:31:02;;;;;;;;;0.00;0.00;;;;;;;;5096464;27;45394;-70
2022/06/28 03:33:27;;;;;;;;;0.00;0.00;;;;;;;;5092974;27;48316;-71
2022/06/28 03:35:53;;;;;;;;;0.00;0.00;;;;;;;;5092486;27;45244;-70
2022/06/28 03:38:18;;;;;;;;;0.00;0.00;;;;;;;;5092949;27;45514;-70
2022/06/28 03:40:43;;;;;;;;;0.00;0.00;;;;;;;;5095679;27;45290;-70
2022/06/28 03:43:09;;;;;;;;;0.00;0.00;;;;;;;;5095286;27;45320;-71
2022/06/28 03:45:34;;;;;;;;;0.00;0.00;;;;;;;;5093033;27;45280;-70
2022/06/28 03:47:59;;;;;;;;;0.67;0.00;;;;;;;;5092742;27;45478;-70
2022/06/28 03:50:24;;;;;;;;;0.00;0.00;;;;;;;;5092344;27;45471;-70
2022/06/28 03:52:49;;;;;;;;;2.00;0.00;;;;;;;;5091959;27;46579;-70
2022/06/28 03:55:15;;;;;;;;;0.00;0.00;;;;;;;;5094739;27;45286;-70
2022/06/28 03:57:40;;;;;;;;;0.00;0.00;;;;;;;;5053801;27;1141418;-70
2022/06/28 04:00:05;;;;;;;;;0.67;0.00;;;;;;;;5095155;27;45413;-70
2022/06/28 04:02:30;;;;;;;;;0.00;0.00;;;;;;;;5093445;27;45499;-70
2022/06/28 04:04:56;;;;;;;;;0.00;0.00;;;;;;;;5093681;27;45565;-70
2022/06/28 04:07:21;;;;;;;;;0.00;0.00;;;;;;;;5096167;27;45382;-70
2022/06/28 04:09:46;;;;;;;;;0.00;0.00;;;;;;;;5094800;27;45441;-70
2022/06/28 04:12:11;;;;;;;;;0.00;0.00;;;;;;;;5093030;27;46203;-70
2022/06/28 04:14:37;;;;;;;;;0.00;0.00;;;;;;;;5093221;27;45540;-70
2022/06/28 04:17:02;;;;;;;;;0.00;0.00;;;;;;;;5092946;27;45432;-70
2022/06/28 04:19:27;;;;;;;;;0.00;0.00;;;;;;;;5095130;27;45360;-70
2022/06/28 04:21:52;;;;;;;;;1.33;0.00;;;;;;;;5095269;27;45351;-70
2022/06/28 04:24:18;;;;;;;;;0.00;0.00;;;;;;;;5094910;27;45342;-70
2022/06/28 04:26:43;;;;;;;;;0.00;0.00;;;;;;;;5091869;27;45361;-70
2022/06/28 04:29:08;;;;;;;;;0.00;0.00;;;;;;;;5092852;27;45581;-70
2022/06/28 04:31:33;;;;;;;;;0.00;0.00;;;;;;;;5093515;27;45373;-70
2022/06/28 04:33:59;;;;;;;;;0.00;0.00;;;;;;;;5096184;27;45494;-70
2022/06/28 04:36:26;;;;;;;;;0.00;0.00;;;;;;;;5093014;27;45577;-70
2022/06/28 04:38:51;;;;;;;;;0.00;0.00;;;;;;;;5092837;27;45564;-70
2022/06/28 04:41:17;;;;;;;;;0.00;0.00;;;;;;;;5092356;27;45473;-70
2022/06/28 04:43:42;;;;;;;;;0.00;0.00;;;;;;;;5092757;27;45554;-70
2022/06/28 04:46:07;;;;;;;;;0.33;0.33;;;;;;;;5096780;27;45468;-70
2022/06/28 04:48:33;;;;;;;;;1.33;0.00;;;;;;;;5094524;27;45631;-70
2022/06/28 04:51:10;;;;;;;;;0.00;0.00;;;;;;;;5094518;27;47218;-70
2022/06/28 04:53:36;;;;;;;;;0.00;0.00;;;;;;;;5092673;27;46791;-70
2022/06/28 04:56:01;;;;;;;;;0.00;0.00;;;;;;;;5092471;27;45415;-70
2022/06/28 04:58:26;;;;;;;;;0.00;0.00;;;;;;;;5094365;27;45340;-70
2022/06/28 05:00:52;;;;;;;;;0.00;0.00;;;;;;;;5094901;27;45428;-70
2022/06/28 05:03:17;;;;;;;;;0.00;0.00;;;;;;;;5092325;27;45485;-70
2022/06/28 05:05:42;;;;;;;;;0.00;0.00;;;;;;;;5092760;27;45313;-70
2022/06/28 05:08:07;;;;;;;;;0.00;0.00;;;;;;;;5092478;27;45343;-70
2022/06/28 05:10:33;;;;;;;;;0.00;0.00;;;;;;;;5093819;27;45373;-70
2022/06/28 05:12:58;;;;;;;;;0.00;0.00;;;;;;;;5096143;27;45364;-71
2022/06/28 05:15:23;;;;;;;;;0.00;0.00;;;;;;;;5092534;27;45266;-70
2022/06/28 05:17:48;;;;;;;;;1.00;1.00;;;;;;;;5093855;27;45289;-70
2022/06/28 05:20:13;;;;;;;;;0.00;0.00;;;;;;;;5092205;27;45518;-70
2022/06/28 05:22:38;;;;;;;;;0.00;0.00;;;;;;;;5092619;27;45297;-70
2022/06/28 05:25:04;;;;;;;;;1.00;0.00;;;;;;;;5095713;27;45298;-70
2022/06/28 05:27:29;;;;;;;;;0.00;0.00;;;;;;;;5092346;27;45598;-70
2022/06/28 05:29:54;;;;;;;;;0.00;0.00;;;;;;;;5091969;27;45427;-70
2022/06/28 05:32:19;;;;;;;;;1.00;0.00;;;;;;;;5092044;27;45525;-70
2022/06/28 05:34:45;;;;;;;;;0.00;0.00;;;;;;;;5094100;27;45334;-71
2022/06/28 05:37:11;;;;;;;;;0.00;0.00;;;;;;;;5095392;27;45309;-70
2022/06/28 05:39:36;;;;;;;;;0.00;0.00;;;;;;;;5092289;27;46153;-71
2022/06/28 05:42:01;;;;;;;;;0.00;0.00;;;;;;;;5091812;27;45569;-70
2022/06/28 05:44:27;;;;;;;;;0.00;0.00;;;;;;;;5095882;27;45318;-70
2022/06/28 05:46:52;;;;;;;;;0.00;0.00;;;;;;;;5094209;27;45560;-70
2022/06/28 05:49:17;;;;;;;;;0.00;0.00;;;;;;;;5109076;27;46324;-71
2022/06/28 05:51:43;;;;;;;;;1.00;0.00;;;;;;;;5107808;27;45476;-70
2022/06/28 05:54:09;;;;;;;;;0.00;0.00;;;;;;;;5106925;27;45584;-70
2022/06/28 05:56:35;;;;;;;;;0.00;0.00;;;;;;;;5103672;27;45915;-70
2022/06/28 05:59:00;;;;;;;;;0.00;0.00;;;;;;;;5106004;27;45492;-70
2022/06/28 06:01:26;;;;;;;;;0.00;0.00;;;;;;;;5107674;27;45732;-71
2022/06/28 06:03:51;;;;;;;;;0.00;0.00;;;;;;;;5100001;27;45390;-72
2022/06/28 06:06:17;;;;;;;;;0.00;0.00;;;;;;;;5091156;27;45545;-71
2022/06/28 06:08:42;;;;;;;;;0.00;0.00;;;;;;;;5091195;27;45392;-72
2022/06/28 06:11:08;;;;;;;;;0.00;0.00;;;;;;;;5097315;27;45319;-72
2022/06/28 06:13:36;;;;;;;;;0.00;0.00;;;;;;;;5105176;27;45368;-72
2022/06/28 06:16:02;;;;;;;;;3.33;0.00;;;;;;;;5108714;27;45289;-72
2022/06/28 06:18:27;;;;;;;;;1.00;0.00;;;;;;;;5101890;27;46121;-71
2022/06/28 06:20:52;;;;;;;;;0.00;0.00;;;;;;;;5099492;27;45381;-71
2022/06/28 06:23:17;;;;;;;;;0.33;0.00;;;;;;;;5100182;27;45444;-71
2022/06/28 06:25:43;;;;;;;;;0.00;0.00;;;;;;;;5090798;27;45545;-71
2022/06/28 06:28:08;;;;;;;;;0.00;0.00;;;;;;;;5095284;27;46473;-68
2022/06/28 06:30:33;;;;;;;;;0.00;0.00;;;;;;;;5089834;27;45780;-74
2022/06/28 06:32:59;;;;;;;;;0.00;0.00;;;;;;;;5091741;27;45300;-72
2022/06/28 06:35:24;;;;;;;;;0.00;0.00;;;;;;;;5091464;27;46292;-72
2022/06/28 06:37:49;;;;;;;;;0.00;0.00;;;;;;;;5090974;27;45557;-72
2022/06/28 06:40:16;;;;;;;;;0.00;0.00;;;;;;;;5094230;27;45282;-72
2022/06/28 06:42:41;;;;;;;;;0.00;0.00;;;;;;;;5093540;27;45337;-72
2022/06/28 06:45:07;;;;;;;;;0.00;0.00;;;;;;;;5091063;27;45512;-72
2022/06/28 06:47:32;;;;;;;;;0.00;0.00;;;;;;;;5094008;27;45456;-72
2022/06/28 06:49:57;;;;;;;;;1.00;0.00;;;;;;;;5091315;27;45367;-72
2022/06/28 06:52:22;;;;;;;;;1.33;1.00;;;;;;;;5096851;27;45325;-73
2022/06/28 06:54:47;;;;;;;;;0.67;0.00;;;;;;;;5096416;27;45471;-72
2022/06/28 06:57:14;;;;;;;;;0.00;0.00;;;;;;;;5094373;27;47161;-72
2022/06/28 06:59:39;;;;;;;;;0.00;0.00;;;;;;;;5094401;27;45620;-72
2022/06/28 07:02:04;;;;;;;;;0.00;0.00;;;;;;;;5094858;27;45489;-72
2022/06/28 07:04:29;;;;;;;;;1.00;0.00;;;;;;;;5095832;27;45817;-72
2022/06/28 07:06:56;;;;;;;;;0.00;0.00;;;;;;;;5096215;27;46384;-72
2022/06/28 07:09:23;;;;;;;;;0.00;0.00;;;;;;;;5094428;27;45449;-72
2022/06/28 07:11:48;;;;;;;;;1.00;1.00;;;;;;;;5094600;27;45608;-72
2022/06/28 07:14:14;;;;;;;;;2.00;0.00;;;;;;;;5095643;27;45374;-72
2022/06/28 07:16:39;;;;;;;;;0.00;0.00;;;;;;;;5094451;27;46063;-72
2022/06/28 07:19:04;;;;;;;;;1.00;0.00;;;;;;;;5098081;27;45475;-71
2022/06/28 07:21:29;;;;;;;;;0.00;0.00;;;;;;;;5094073;27;45414;-71
2022/06/28 07:23:55;;;;;;;;;0.00;0.00;;;;;;;;5094146;27;45479;-72
2022/06/28 07:26:20;;;;;;;;;0.00;0.00;;;;;;;;5098872;27;45518;-71
2022/06/28 07:28:46;;;;;;;;;1.00;0.33;;;;;;;;5093994;27;45456;-72
2022/06/28 07:31:11;;;;;;;;;0.00;0.00;;;;;;;;5097388;27;45531;-72
2022/06/28 07:33:37;;;;;;;;;0.00;0.00;;;;;;;;5094606;27;45318;-72
2022/06/28 07:36:02;;;;;;;;;0.00;0.00;;;;;;;;5093592;27;46306;-72
2022/06/28 07:38:29;;;;;;;;;0.00;0.00;;;;;;;;5093776;27;45389;-72
2022/06/28 07:40:55;;;;;;;;;0.00;0.00;;;;;;;;5094113;27;45558;-72
2022/06/28 07:43:21;;;;;;;;;0.33;0.00;;;;;;;;5096005;27;45687;-72
2022/06/28 07:45:46;;;;;;;;;0.00;0.00;;;;;;;;5095123;27;46286;-72
2022/06/28 07:48:11;;;;;;;;;0.00;0.00;;;;;;;;5093735;27;45474;-71
2022/06/28 07:53:23;;;;;;;;;0.00;0.00;;;;;;;;5013459;28;45460;-72
2022/06/28 07:55:48;;;;;;;;;0.00;0.00;;;;;;;;5013242;28;46249;-72
2022/06/28 07:58:13;;;;;;;;;1.67;0.00;;;;;;;;5013848;28;45445;-72
2022/06/28 08:00:38;;;;;;;;;0.00;0.00;;;;;;;;5013541;28;45476;-71
2022/06/28 08:03:05;;;;;;;;;0.00;0.00;;;;;;;;5012402;28;45417;-72
2022/06/28 08:05:30;;;;;;;;;0.00;0.00;;;;;;;;5013175;28;45493;-72
2022/06/28 08:07:55;;;;;;;;;1.67;0.00;;;;;;;;5013333;28;45410;-72
2022/06/28 08:10:20;;;;;;;;;0.00;0.00;;;;;;;;5013869;28;45329;-72
2022/06/28 08:12:46;;;;;;;;;0.67;0.00;;;;;;;;5008769;28;45386;-72
2022/06/28 08:15:11;;;;;;;;;0.00;0.00;;;;;;;;5012988;28;45449;-72
2022/06/28 08:17:37;;;;;;;;;1.00;0.00;;;;;;;;5012858;28;45411;-72
2022/06/28 08:20:02;;;;;;;;;1.33;0.00;;;;;;;;5013430;28;45401;-72
2022/06/28 08:22:27;;;;;;;;;0.33;0.00;;;;;;;;5013252;28;45554;-72
2022/06/28 08:24:53;;;;;;;;;0.00;0.00;;;;;;;;5013806;28;45638;-72
2022/06/28 08:27:18;;;;;;;;;0.00;0.00;;;;;;;;5012980;28;45345;-72
2022/06/28 08:29:45;;;;;;;;;0.33;0.00;;;;;;;;5028803;27;45450;-72
2022/06/28 08:32:11;;;;;;;;;0.00;0.00;;;;;;;;5094198;27;45553;-72
2022/06/28 08:34:37;;;;;;;;;0.00;0.00;;;;;;;;5093453;27;46203;-72
2022/06/28 08:37:03;;;;;;;;;0.00;0.00;;;;;;;;5096059;27;45548;-72
2022/06/28 08:39:28;;;;;;;;;0.00;0.00;;;;;;;;5093227;27;45354;-72
2022/06/28 08:41:53;;;;;;;;;1.33;0.00;;;;;;;;5092985;27;45348;-72
2022/06/28 08:44:19;;;;;;;;;0.00;0.00;;;;;;;;5088606;27;45559;-72
2022/06/28 08:46:51;;;;;;;;;1.00;0.00;;;;;;;;5092308;27;45464;-72
2022/06/28 08:49:36;;;;;;;;;0.00;0.00;;;;;;;;5095481;27;45266;-72
2022/06/28 08:52:02;;;;;;;;;0.00;0.00;;;;;;;;5096123;27;45647;-72
2022/06/28 08:54:27;;;;;;;;;1.00;1.00;;;;;;;;5092274;27;45388;-72
2022/06/28 08:56:53;;;;;;;;;1.33;1.00;;;;;;;;5094170;27;45458;-72
2022/06/28 08:59:18;;;;;;;;;0.00;0.00;;;;;;;;5092997;27;45327;-72
2022/06/28 09:01:43;;;;;;;;;0.00;0.00;;;;;;;;5092111;27;45267;-72
2022/06/28 09:04:10;;;;;;;;;1.67;0.33;;;;;;;;5096623;27;45372;-72
2022/06/28 09:06:35;;;;;;;;;0.00;0.00;;;;;;;;5100644;27;45287;-73
2022/06/28 09:09:00;;;;;;;;;0.00;0.00;;;;;;;;5098624;27;45448;-72
2022/06/28 09:11:35;;;;;;;;;0.00;0.00;;;;;;;;5094048;27;45358;-72
2022/06/28 09:14:00;;;;;;;;;0.00;0.00;;;;;;;;5092137;27;45485;-72
2022/06/28 09:16:25;;;;;;;;;2.00;0.33;;;;;;;;5093808;27;45546;-72
2022/06/28 09:18:50;;;;;;;;;1.00;0.00;;;;;;;;5095051;27;45419;-72
2022/06/28 09:21:17;;;;;;;;;0.00;0.00;;;;;;;;5094056;27;45519;-71
2022/06/28 09:23:44;;;;;;;;;0.00;0.00;;;;;;;;5092249;27;46622;-72
2022/06/28 09:26:11;;;;;;;;;0.00;0.00;;;;;;;;5092746;27;45457;-72
2022/06/28 09:28:41;;;;;;;;;0.00;0.00;;;;;;;;5093217;27;45295;-72
2022/06/28 09:31:22;;;;;;;;;0.00;0.00;;;;;;;;5091163;27;45326;-72
2022/06/28 09:34:08;;;;;;;;;0.00;0.00;;;;;;;;5093152;27;45645;-72
2022/06/28 09:36:37;;;;;;;;;0.00;0.00;;;;;;;;5091325;27;45406;-72
2022/06/28 09:39:11;;;;;;;;;0.00;0.00;;;;;;;;5091826;27;45375;-72
2022/06/28 09:41:36;;;;;;;;;1.67;0.00;;;;;;;;5091994;27;45695;-72
2022/06/28 09:44:07;;;;;;;;;0.00;0.00;;;;;;;;5093520;27;46083;-72
2022/06/28 09:46:32;;;;;;;;;0.67;0.00;;;;;;;;5093312;27;45422;-72
2022/06/28 09:48:59;;;;;;;;;0.00;0.00;;;;;;;;5095558;27;45290;-72
2022/06/28 09:51:24;;;;;;;;;0.00;0.00;;;;;;;;5093158;27;45468;-72
2022/06/28 09:53:52;;;;;;;;;0.00;0.00;;;;;;;;5091991;27;46149;-72
2022/06/28 09:56:18;;;;;;;;;1.00;1.00;;;;;;;;5091932;27;45528;-72
2022/06/28 09:58:43;;;;;;;;;1.00;1.00;;;;;;;;5092044;27;45484;-72
2022/06/28 10:01:08;;;;;;;;;0.33;0.00;;;;;;;;5095137;27;45394;-71
2022/06/28 10:03:33;;;;;;;;;1.00;0.00;;;;;;;;5093312;27;48468;-73
2022/06/28 10:05:59;;;;;;;;;0.33;0.00;;;;;;;;5091569;27;45435;-72
2022/06/28 10:08:24;;;;;;;;;0.00;0.00;;;;;;;;5091989;27;45472;-72
2022/06/28 10:10:50;;;;;;;;;0.00;0.00;;;;;;;;5092148;27;45294;-72
2022/06/28 10:16:18;;;;;;;;;0.00;0.00;;;;;;;;5094666;27;45326;-72
2022/06/28 10:18:44;;;;;;;;;0.00;0.00;;;;;;;;5094369;27;45420;-72
2022/06/28 10:21:10;;;;;;;;;1.00;0.00;;;;;;;;5091176;27;45581;-72
2022/06/28 10:23:42;;;;;;;;;0.00;0.00;;;;;;;;5091340;27;45579;-72
2022/06/28 10:26:11;;;;;;;;;0.00;0.00;;;;;;;;5096320;27;45420;-72
2022/06/28 10:28:55;;;;;;;;;0.00;0.00;;;;;;;;5096336;27;45333;-72
2022/06/28 10:31:20;;;;;;;;;0.00;0.00;;;;;;;;5094961;27;45448;-72
2022/06/28 10:33:46;;;;;;;;;0.33;0.00;;;;;;;;5095940;27;46197;-72
2022/06/28 10:36:13;;;;;;;;;0.00;0.00;;;;;;;;5095020;27;45547;-72
2022/06/28 10:38:58;;;;;;;;;2.00;0.00;;;;;;;;5095167;27;45445;-72
2022/06/28 10:41:34;;;;;;;;;0.00;0.00;;;;;;;;5095014;27;45394;-72
2022/06/28 10:44:07;;;;;;;;;0.00;0.00;;;;;;;;5095943;27;48507;-72
2022/06/28 10:46:33;;;;;;;;;0.00;0.00;;;;;;;;5095899;27;45432;-72
2022/06/28 10:48:58;;;;;;;;;3.00;0.00;;;;;;;;5097424;27;45409;-72
2022/06/28 10:51:25;;;;;;;;;0.00;0.00;;;;;;;;5094617;27;45432;-73
2022/06/28 10:53:57;;;;;;;;;1.33;0.00;;;;;;;;5094752;27;46133;-73
2022/06/28 10:56:23;;;;;;;;;0.00;0.00;;;;;;;;5094501;27;45346;-73
2022/06/28 10:58:55;;;;;;;;;0.00;0.00;;;;;;;;5094474;27;45492;-73
2022/06/28 11:01:40;;;;;;;;;0.00;0.00;;;;;;;;5097110;27;45484;-72
2022/06/28 11:04:09;;;;;;;;;0.00;0.00;;;;;;;;5098220;27;46404;-73
2022/06/28 11:06:39;;;;;;;;;0.00;0.00;;;;;;;;5094198;27;45381;-73
2022/06/28 11:09:08;;;;;;;;;0.00;0.00;;;;;;;;5095743;27;45523;-73
2022/06/28 11:11:33;;;;;;;;;0.33;0.33;;;;;;;;5094319;27;45577;-73
2022/06/28 11:14:18;;;;;;;;;0.00;0.00;;;;;;;;5101892;27;45934;-73
2022/06/28 11:16:44;;;;;;;;;0.67;0.67;;;;;;;;5089481;27;45652;-73
2022/06/28 11:19:10;;;;;;;;;0.00;0.00;;;;;;;;5098146;27;45403;-72
2022/06/28 11:21:35;;;;;;;;;0.00;0.00;;;;;;;;5094398;27;45314;-73
2022/06/28 11:24:01;;;;;;;;;1.33;0.00;;;;;;;;5093880;27;46168;-73
2022/06/28 11:29:15;;;;;;;;;0.00;0.00;;;;;;;;5094277;27;45404;-73
2022/06/28 11:31:41;;;;;;;;;1.00;0.00;;;;;;;;5094264;27;45372;-72
2022/06/28 11:34:07;;;;;;;;;0.33;0.33;;;;;;;;5096460;27;46506;-72
2022/06/28 11:36:32;;;;;;;;;0.33;0.33;;;;;;;;5095131;27;45450;-73
2022/06/28 11:39:01;;;;;;;;;1.00;0.00;;;;;;;;5095569;27;45383;-73
2022/06/28 11:41:28;;;;;;;;;0.00;0.00;;;;;;;;5094135;27;45520;-73
2022/06/28 11:43:58;;;;;;;;;0.00;0.00;;;;;;;;5093687;27;47333;-73
2022/06/28 11:46:24;;;;;;;;;0.00;0.00;;;;;;;;5095454;27;45545;-73
2022/06/28 11:48:49;;;;;;;;;0.00;0.00;;;;;;;;5097409;27;45346;-72
2022/06/28 11:51:23;;;;;;;;;0.00;0.00;;;;;;;;5093272;27;45396;-73
2022/06/28 11:53:48;;;;;;;;;0.00;0.00;;;;;;;;5095396;27;46643;-72
2022/06/28 11:56:13;;;;;;;;;0.67;0.00;;;;;;;;5092980;27;45493;-73
2022/06/28 11:58:38;;;;;;;;;0.33;0.00;;;;;;;;5093816;27;45343;-72
2022/06/28 12:01:04;;;;;;;;;0.00;0.00;;;;;;;;5097200;27;45506;-73
2022/06/28 12:03:29;;;;;;;;;0.00;0.00;;;;;;;;5093554;27;45390;-73
2022/06/28 12:05:57;;;;;;;;;0.00;0.00;;;;;;;;5093377;27;48806;-73
2022/06/28 12:08:40;;;;;;;;;0.00;0.00;;;;;;;;5095504;27;45303;-73
2022/06/28 12:11:05;;;;;;;;;0.00;0.00;;;;;;;;5093059;27;46054;-73
2022/06/28 12:13:31;;;;;;;;;0.00;0.00;;;;;;;;5094720;27;45510;-73
2022/06/28 12:15:58;;;;;;;;;0.00;0.00;;;;;;;;5095637;27;45327;-72
2022/06/28 12:18:23;;;;;;;;;0.00;0.00;;;;;;;;5094225;27;45519;-72
2022/06/28 12:20:57;;;;;;;;;0.00;0.00;;;;;;;;5093591;27;45387;-72
2022/06/28 12:23:22;;;;;;;;;0.00;0.00;;;;;;;;5093452;27;46271;-73
2022/06/28 12:25:57;;;;;;;;;1.00;0.00;;;;;;;;5094324;27;45426;-72
2022/06/28 12:28:22;;;;;;;;;2.00;0.00;;;;;;;;5095924;27;45382;-72
2022/06/28 12:30:47;;;;;;;;;0.00;0.00;;;;;;;;5094542;27;45412;-73
2022/06/28 12:33:12;;;;;;;;;0.00;0.00;;;;;;;;5092921;27;45482;-73
2022/06/28 12:35:39;;;;;;;;;1.67;0.00;;;;;;;;5094572;27;45319;-73
2022/06/28 12:38:04;;;;;;;;;0.00;0.00;;;;;;;;5093318;27;45401;-73
2022/06/28 12:40:30;;;;;;;;;1.00;0.00;;;;;;;;5093847;27;45391;-72
2022/06/28 12:42:55;;;;;;;;;0.00;0.00;;;;;;;;5094959;27;45495;-72
2022/06/28 12:45:20;;;;;;;;;0.00;0.00;;;;;;;;5094665;27;45371;-72
2022/06/28 12:47:45;;;;;;;;;0.00;0.00;;;;;;;;5092162;27;45634;-72
2022/06/28 12:50:13;;;;;;;;;0.00;0.00;;;;;;;;5093742;27;45411;-72
2022/06/28 12:52:39;;;;;;;;;0.00;0.00;;;;;;;;5088985;27;46754;-72
2022/06/28 12:55:05;;;;;;;;;0.00;0.00;;;;;;;;5095976;27;45390;-72
2022/06/28 12:57:30;;;;;;;;;0.00;0.00;;;;;;;;5093872;27;45440;-72
2022/06/28 12:59:56;;;;;;;;;0.00;0.00;;;;;;;;5092639;27;45435;-72
2022/06/28 13:02:21;;;;;;;;;1.00;0.67;;;;;;;;5092702;27;46532;-72
2022/06/28 13:04:47;;;;;;;;;0.00;0.00;;;;;;;;5093989;27;45427;-72
2022/06/28 13:07:14;;;;;;;;;0.00;0.00;;;;;;;;5095782;27;45494;-72
2022/06/28 13:09:39;;;;;;;;;0.00;0.00;;;;;;;;5092861;27;45349;-72
2022/06/28 13:12:04;;;;;;;;;0.33;0.33;;;;;;;;5092375;27;46484;-72
2022/06/28 13:14:29;;;;;;;;;1.00;0.00;;;;;;;;5092520;27;45417;-72
2022/06/28 13:16:54;;;;;;;;;0.00;0.00;;;;;;;;5092399;27;45441;-72
2022/06/28 13:19:20;;;;;;;;;0.00;0.00;;;;;;;;5094576;27;45690;-72
2022/06/28 13:21:47;;;;;;;;;0.00;0.00;;;;;;;;5093551;27;45452;-72
2022/06/28 13:24:13;;;;;;;;;1.00;0.33;;;;;;;;5092278;27;45395;-71
2022/06/28 13:26:38;;;;;;;;;0.00;0.00;;;;;;;;5095533;27;45391;-72
2022/06/28 13:29:03;;;;;;;;;0.00;0.00;;;;;;;;5093961;27;45430;-72
2022/06/28 13:31:28;;;;;;;;;0.00;0.00;;;;;;;;5094686;27;46569;-71
2022/06/28 13:33:53;;;;;;;;;1.00;1.00;;;;;;;;5095776;27;45393;-72
2022/06/28 13:36:19;;;;;;;;;0.00;0.00;;;;;;;;5092058;27;45288;-71
2022/06/28 13:38:44;;;;;;;;;0.00;0.00;;;;;;;;5092180;27;45324;-72
2022/06/28 13:41:10;;;;;;;;;0.00;0.00;;;;;;;;5092222;27;45262;-72
2022/06/28 13:43:35;;;;;;;;;0.00;0.00;;;;;;;;5093375;27;45331;-72
2022/06/28 13:46:07;;;;;;;;;0.00;0.00;;;;;;;;5095996;27;45212;-72
2022/06/28 13:48:33;;;;;;;;;2.00;0.00;;;;;;;;5092048;27;45475;-72
2022/06/28 13:50:59;;;;;;;;;0.00;0.00;;;;;;;;5091168;27;46779;-72
2022/06/28 13:53:24;;;;;;;;;1.00;1.00;;;;;;;;5091358;27;45324;-72
2022/06/28 13:55:51;;;;;;;;;0.00;0.00;;;;;;;;5093291;27;45407;-72
2022/06/28 13:58:16;;;;;;;;;0.00;0.00;;;;;;;;5093281;27;45471;-72
2022/06/28 14:00:42;;;;;;;;;1.33;0.00;;;;;;;;5096446;27;45347;-72
2022/06/28 14:03:07;;;;;;;;;0.00;0.00;;;;;;;;5095418;27;45647;-72
2022/06/28 14:05:32;;;;;;;;;0.33;0.33;;;;;;;;5095352;27;45898;-72
2022/06/28 14:07:58;;;;;;;;;0.00;0.00;;;;;;;;5095598;27;45285;-72
2022/06/28 14:10:23;;;;;;;;;0.00;0.00;;;;;;;;5097534;27;45576;-72
2022/06/28 14:12:48;;;;;;;;;0.00;0.00;;;;;;;;5096453;27;45399;-73
2022/06/28 14:15:13;;;;;;;;;0.00;0.00;;;;;;;;5094892;27;45370;-72
2022/06/28 14:17:39;;;;;;;;;0.00;0.00;;;;;;;;5097168;27;45657;-72
2022/06/28 14:20:04;;;;;;;;;0.00;0.00;;;;;;;;5094757;27;46025;-72
2022/06/28 14:22:30;;;;;;;;;0.00;0.00;;;;;;;;5096299;27;45654;-72
2022/06/28 14:24:55;;;;;;;;;0.00;0.00;;;;;;;;5099084;27;45401;-72
2022/06/28 14:27:20;;;;;;;;;0.00;0.00;;;;;;;;5095204;27;45415;-72
2022/06/28 14:29:46;;;;;;;;;1.00;1.00;;;;;;;;5097374;27;45443;-72
2022/06/28 14:32:11;;;;;;;;;0.00;0.00;;;;;;;;5098326;27;45362;-72
2022/06/28 14:34:36;;;;;;;;;0.00;0.00;;;;;;;;5095697;27;45542;-72
2022/06/28 14:37:02;;;;;;;;;0.00;0.00;;;;;;;;5098187;27;45321;-71
2022/06/28 14:39:27;;;;;;;;;0.00;0.00;;;;;;;;5094629;27;46438;-72
2022/06/28 14:41:53;;;;;;;;;0.00;0.00;;;;;;;;5094856;27;45304;-72
2022/06/28 14:44:18;;;;;;;;;2.67;0.00;;;;;;;;5095250;27;45382;-72
2022/06/28 14:46:43;;;;;;;;;0.00;0.00;;;;;;;;5093590;27;45534;-72
2022/06/28 14:49:09;;;;;;;;;0.00;0.00;;;;;;;;5098035;27;46552;-72
2022/06/28 14:51:34;;;;;;;;;1.00;1.00;;;;;;;;5096665;27;45412;-72
2022/06/28 14:53:59;;;;;;;;;0.00;0.00;;;;;;;;5094664;27;45374;-72